EST,Max TemperatureF,Mean TemperatureF,Min TemperatureF,Max Dew PointF,MeanDew PointF,Min DewpointF,Max Humidity, Mean Humidity, Min Humidity, Max Sea Level PressureIn, Mean Sea Level PressureIn, Min Sea Level PressureIn, Max VisibilityMiles, Mean VisibilityMiles, Min VisibilityMiles, Max Wind SpeedMPH, Mean Wind SpeedMPH, Max Gust SpeedMPH,PrecipitationIn, CloudCover, Events, WindDirDegrees
2010-12-1,27,25,23,21,19,17,86,79,74,30.07,29.91,29.83,10,5,2,22,16,30,0.00,8,Snow,245
2010-12-2,28,26,23,22,20,18,85,79,74,30.20,30.15,30.07,10,9,7,15,11,23,0.00,8,,226
2010-12-3,30,26,21,26,23,18,89,81,72,30.24,30.19,30.16,10,10,7,7,3,,0.00,7,,227
2010-12-4,30,28,26,27,23,16,93,79,64,30.18,30.09,30.01,10,7,1,17,5,,0.00,8,Snow,53
2010-12-5,30,27,24,27,22,17,93,82,69,30.22,30.18,30.15,10,7,1,15,9,23,0.00,8,Snow,284
2010-12-6,24,20,16,20,16,12,93,88,80,30.16,30.06,29.96,10,3,0,20,15,24,0.01,8,Fog-Snow,257
2010-12-7,24,20,17,19,17,11,93,86,77,30.18,30.06,29.97,10,5,0,18,10,,0.00,8,Fog-Snow,279
2010-12-8,21,14,7,19,13,2,93,84,78,30.28,30.19,30.13,10,7,2,13,9,,0.00,8,Snow,246
2010-12-9,26,20,15,21,15,13,92,77,63,30.33,30.21,30.04,10,7,1,16,6,23,0.00,6,Snow,164
2010-12-10,34,29,24,28,25,21,96,85,75,30.07,30.00,29.92,10,6,1,16,11,,0.04,3,Snow,196
2010-12-11,37,31,25,36,32,24,96,89,75,30.06,29.77,29.48,5,4,2,18,9,24,0.27,5,Rain,129
2010-12-12,37,29,19,37,24,14,100,90,78,29.70,29.50,29.41,8,3,0,26,13,41,0.07,8,Fog-Rain-Snow,291
2010-12-13,21,16,12,12,7,3,74,63,52,30.16,29.96,29.72,10,10,10,25,19,34,0.00,2,,342
2010-12-14,21,14,8,18,14,2,93,86,70,30.16,30.11,30.06,10,4,1,13,6,,0.00,8,Snow,276
2010-12-15,19,12,6,10,7,4,95,79,60,30.15,30.09,29.98,10,9,3,8,4,,0.00,3,,196
2010-12-16,24,17,10,21,15,8,92,79,71,29.97,29.88,29.80,10,7,2,9,5,,0.01,7,Snow,202
2010-12-17,23,18,10,21,16,5,93,86,68,30.13,30.04,29.93,10,7,2,16,9,,0.01,4,Snow,242
2010-12-18,19,14,8,12,8,3,88,79,68,30.12,30.08,30.04,10,8,5,14,9,,0.00,0,,221
2010-12-19,21,14,7,14,10,4,88,79,71,30.17,30.10,30.04,10,9,6,10,7,,0.00,5,,227
2010-12-20,27,16,6,19,15,3,92,81,71,30.24,30.18,30.11,10,8,2,9,3,,0.00,7,Snow,136
2010-12-21,28,26,23,25,23,19,88,85,82,30.15,30.08,30.02,9,5,2,14,9,,0.00,8,Snow,109
2010-12-22,30,26,21,28,24,18,100,84,69,30.41,30.16,29.98,10,7,1,7,5,,0.00,6,,133
2010-12-23,33,32,28,27,25,23,88,80,70,30.47,30.42,30.36,10,10,10,10,7,,0.00,8,,335
2010-12-24,30,28,26,25,23,21,88,79,72,30.41,30.33,30.23,10,10,10,8,2,,0.00,8,,300
2010-12-25,26,22,18,21,18,16,96,79,69,30.24,30.20,30.14,10,9,4,14,7,,0.00,7,Snow,17
2010-12-26,28,22,15,20,17,11,88,76,64,30.23,30.20,30.15,10,10,10,20,10,24,0.00,5,,4
2010-12-27,28,22,15,23,16,11,93,81,69,30.29,30.25,30.20,10,9,4,15,7,,0.00,6,,273
2010-12-28,28,22,15,21,16,13,93,86,75,30.25,30.15,30.08,10,8,6,16,13,,0.00,5,,224
2010-12-29,37,26,14,34,22,12,96,87,70,30.10,30.01,29.89,10,5,2,16,7,23,0.00,3,,166
2010-12-30,48,41,36,41,39,35,97,88,74,29.91,29.85,29.79,10,8,2,20,12,25,0.06,7,Rain,165
2010-12-31,55,50,46,52,47,40,100,89,79,29.86,29.82,29.76,10,7,1,20,10,32,0.23,8,Rain-Thunderstorm,171